Accueil
METAR-TAF:

METAR-TAF

Aéroports :

Saint-Gall, Suisse

Aéroport international Saint-Gall-Altenrhein

latitude: 47-29-06N, longitude: 009-33-43E, altitude: 398 m

Observation

Le bulletin a été fait il y a 28 minutes, à 21:50 UTC
Vent 2 kt de direction variable
Température 9°C
Humidité 81%
Pression 1015 hPa
Visibilité 10 km ou plus

METAR: LSZR 242150Z AUTO VRB02KT 9999 NSC 09/06 Q1015

Heure: 23:18 (22:18 UTC)

Prévision

Le bulletin a été fait il y a 7 heures et 53 minutes, à 14:25 UTC
Prévision valable du 24 à 15 UTC au 24 à 24 UTC
Vent 5 kt de est
Visibilité 10 km ou plus
pas de nuages en-dessous de 1500 mètres et pas de cumulonimbus.
Temporairement
du 24 à 17 UTC au 24 à 24 UTC
Visibilité 10 km ou plus
Nuages épars à une hauteur de 7000 ft

TAF: LSZR 241425Z 2415/2424 08005KT CAVOK TEMPO 2417/2424 9999 SCT070

Observations et prévisions météorologiques de plus de 4000 aéroports (messages METAR et TAF).

Les stations disponibles sont représentées par des disques jaunes et rouges sur la carte.

Passer la souris dessus pour voir le nom de la station.

Cliquer dessus pour voir les observations et prévisions météorologiques.

Pour changer de carte: cliquez sur les boutons verts avec une croix noire pour zoomer, sur le bouton vert avec un tiret pour effectuer un zoom arrière, ou sur les flèches vertes pour les cartes adjacentes.


METAR-TAF: